sensor_id;sensor_type;location;lat;lon;timestamp;pressure;altitude;pressure_sealevel;temperature;humidity
19590;BME280;12231;42.782;23.388;2022-08-20T00:02:18;95126.34;;;23.91;63.73
19590;BME280;12231;42.782;23.388;2022-08-20T00:04:44;95131.06;;;23.81;64.36
19590;BME280;12231;42.782;23.388;2022-08-20T00:07:10;95131.91;;;23.82;64.68
19590;BME280;12231;42.782;23.388;2022-08-20T00:09:36;95132.16;;;23.87;64.48
19590;BME280;12231;42.782;23.388;2022-08-20T00:12:04;95144.41;;;23.94;64.64
19590;BME280;12231;42.782;23.388;2022-08-20T00:14:30;95143.75;;;23.92;64.28
19590;BME280;12231;42.782;23.388;2022-08-20T00:16:56;95144.78;;;23.91;63.94
19590;BME280;12231;42.782;23.388;2022-08-20T00:19:21;95147.03;;;23.94;64.07
19590;BME280;12231;42.782;23.388;2022-08-20T00:21:48;95139.88;;;23.88;64.53
19590;BME280;12231;42.782;23.388;2022-08-20T00:24:13;95135.34;;;23.82;64.39
19590;BME280;12231;42.782;23.388;2022-08-20T00:26:39;95130.91;;;23.97;64.26
19590;BME280;12231;42.782;23.388;2022-08-20T00:29:04;95134.13;;;24.14;64.38
19590;BME280;12231;42.782;23.388;2022-08-20T00:31:29;95134.41;;;24.19;63.86
19590;BME280;12231;42.782;23.388;2022-08-20T00:33:56;95137.41;;;24.52;62.68
19590;BME280;12231;42.782;23.388;2022-08-20T00:36:21;95135.13;;;24.49;62.51
19590;BME280;12231;42.782;23.388;2022-08-20T00:38:47;95129.63;;;24.65;62.00
19590;BME280;12231;42.782;23.388;2022-08-20T00:41:25;95133.97;;;24.93;61.55
19590;BME280;12231;42.782;23.388;2022-08-20T00:46:36;95121.34;;;25.37;60.49
19590;BME280;12231;42.782;23.388;2022-08-20T00:49:03;95127.63;;;25.36;59.64
19590;BME280;12231;42.782;23.388;2022-08-20T00:51:42;95116.44;;;25.34;60.31
19590;BME280;12231;42.782;23.388;2022-08-20T00:56:49;95116.88;;;25.38;59.81
19590;BME280;12231;42.782;23.388;2022-08-20T00:59:20;95126.94;;;25.55;59.94
19590;BME280;12231;42.782;23.388;2022-08-20T01:01:47;95123.78;;;25.73;59.65
19590;BME280;12231;42.782;23.388;2022-08-20T01:04:13;95115.34;;;25.84;59.35
19590;BME280;12231;42.782;23.388;2022-08-20T01:06:39;95117.19;;;25.90;59.37
19590;BME280;12231;42.782;23.388;2022-08-20T01:09:06;95113.72;;;25.90;59.15
19590;BME280;12231;42.782;23.388;2022-08-20T01:11:32;95104.16;;;25.89;59.25
19590;BME280;12231;42.782;23.388;2022-08-20T01:13:59;95109.81;;;25.79;59.04
19590;BME280;12231;42.782;23.388;2022-08-20T01:16:28;95111.34;;;25.33;59.68
19590;BME280;12231;42.782;23.388;2022-08-20T01:18:56;95108.44;;;24.73;62.71
19590;BME280;12231;42.782;23.388;2022-08-20T01:21:23;95110.34;;;24.07;65.55
19590;BME280;12231;42.782;23.388;2022-08-20T01:24:14;95104.44;;;24.05;65.20
19590;BME280;12231;42.782;23.388;2022-08-20T01:26:43;95105.09;;;24.07;64.98
19590;BME280;12231;42.782;23.388;2022-08-20T01:29:19;95105.88;;;23.43;66.97
19590;BME280;12231;42.782;23.388;2022-08-20T01:31:47;95101.84;;;23.62;66.76
19590;BME280;12231;42.782;23.388;2022-08-20T01:34:15;95098.84;;;23.79;65.96
19590;BME280;12231;42.782;23.388;2022-08-20T01:36:49;95112.09;;;23.71;66.04
19590;BME280;12231;42.782;23.388;2022-08-20T01:39:22;95103.41;;;23.56;66.75
19590;BME280;12231;42.782;23.388;2022-08-20T01:44:17;95098.16;;;23.42;67.51
19590;BME280;12231;42.782;23.388;2022-08-20T01:46:45;95095.25;;;23.37;67.82
19590;BME280;12231;42.782;23.388;2022-08-20T01:49:32;95090.56;;;23.09;68.66
19590;BME280;12231;42.782;23.388;2022-08-20T01:52:01;95086.19;;;22.87;69.75
19590;BME280;12231;42.782;23.388;2022-08-20T01:54:31;95086.94;;;22.96;69.59
19590;BME280;12231;42.782;23.388;2022-08-20T01:57:14;95092.97;;;22.82;70.50
19590;BME280;12231;42.782;23.388;2022-08-20T01:59:40;95087.59;;;22.75;70.00
19590;BME280;12231;42.782;23.388;2022-08-20T02:02:07;95087.78;;;22.74;70.59
19590;BME280;12231;42.782;23.388;2022-08-20T02:04:33;95082.84;;;22.56;70.81
19590;BME280;12231;42.782;23.388;2022-08-20T02:07:01;95082.88;;;22.48;71.06
19590;BME280;12231;42.782;23.388;2022-08-20T02:09:34;95073.75;;;22.36;71.72
19590;BME280;12231;42.782;23.388;2022-08-20T02:12:00;95080.31;;;22.40;71.56
19590;BME280;12231;42.782;23.388;2022-08-20T02:14:29;95086.41;;;22.41;71.43
19590;BME280;12231;42.782;23.388;2022-08-20T02:16:55;95082.69;;;22.50;71.43
19590;BME280;12231;42.782;23.388;2022-08-20T02:19:38;95087.63;;;22.53;71.48
19590;BME280;12231;42.782;23.388;2022-08-20T02:22:25;95080.06;;;22.50;71.23
19590;BME280;12231;42.782;23.388;2022-08-20T02:24:52;95077.25;;;22.51;71.18
19590;BME280;12231;42.782;23.388;2022-08-20T02:27:18;95078.41;;;22.57;71.01
19590;BME280;12231;42.782;23.388;2022-08-20T02:29:49;95086.94;;;22.59;71.23
19590;BME280;12231;42.782;23.388;2022-08-20T02:32:15;95084.56;;;22.64;71.10
19590;BME280;12231;42.782;23.388;2022-08-20T02:34:41;95081.06;;;22.71;70.64
19590;BME280;12231;42.782;23.388;2022-08-20T02:37:07;95079.59;;;22.69;70.83
19590;BME280;12231;42.782;23.388;2022-08-20T02:39:33;95090.03;;;22.77;70.52
19590;BME280;12231;42.782;23.388;2022-08-20T02:41:58;95090.03;;;22.77;70.68
19590;BME280;12231;42.782;23.388;2022-08-20T02:44:26;95077.56;;;22.79;70.47
19590;BME280;12231;42.782;23.388;2022-08-20T02:46:52;95086.56;;;22.84;70.71
19590;BME280;12231;42.782;23.388;2022-08-20T02:49:18;95082.38;;;22.90;70.47
19590;BME280;12231;42.782;23.388;2022-08-20T02:51:44;95090.41;;;22.74;71.26
19590;BME280;12231;42.782;23.388;2022-08-20T02:54:10;95086.56;;;22.84;70.45
19590;BME280;12231;42.782;23.388;2022-08-20T02:56:36;95088.00;;;22.87;70.50
19590;BME280;12231;42.782;23.388;2022-08-20T02:59:01;95087.13;;;22.94;70.40
19590;BME280;12231;42.782;23.388;2022-08-20T03:01:27;95091.38;;;23.10;71.01
19590;BME280;12231;42.782;23.388;2022-08-20T03:03:52;95097.56;;;23.17;70.92
19590;BME280;12231;42.782;23.388;2022-08-20T03:06:21;95097.22;;;23.20;71.42
19590;BME280;12231;42.782;23.388;2022-08-20T03:08:48;95097.75;;;23.01;71.79
19590;BME280;12231;42.782;23.388;2022-08-20T03:11:13;95094.19;;;23.08;71.49
19590;BME280;12231;42.782;23.388;2022-08-20T03:13:38;95097.00;;;22.92;71.60
19590;BME280;12231;42.782;23.388;2022-08-20T03:16:04;95107.53;;;23.07;71.88
19590;BME280;12231;42.782;23.388;2022-08-20T03:18:36;95097.44;;;22.96;73.27
19590;BME280;12231;42.782;23.388;2022-08-20T03:21:04;95096.25;;;22.84;73.34
19590;BME280;12231;42.782;23.388;2022-08-20T03:23:30;95095.31;;;22.77;74.06
19590;BME280;12231;42.782;23.388;2022-08-20T03:25:57;95100.97;;;22.43;76.16
19590;BME280;12231;42.782;23.388;2022-08-20T03:28:23;95109.69;;;22.44;75.70
19590;BME280;12231;42.782;23.388;2022-08-20T03:30:48;95100.03;;;22.36;75.97
19590;BME280;12231;42.782;23.388;2022-08-20T03:33:16;95092.13;;;22.14;77.19
19590;BME280;12231;42.782;23.388;2022-08-20T03:35:42;95094.47;;;22.09;77.51
19590;BME280;12231;42.782;23.388;2022-08-20T03:38:09;95093.16;;;22.13;78.04
19590;BME280;12231;42.782;23.388;2022-08-20T03:40:36;95093.72;;;22.00;78.58
19590;BME280;12231;42.782;23.388;2022-08-20T03:43:04;95090.22;;;22.08;78.34
19590;BME280;12231;42.782;23.388;2022-08-20T03:45:29;95093.44;;;22.18;78.18
19590;BME280;12231;42.782;23.388;2022-08-20T03:47:56;95098.22;;;22.37;77.82
19590;BME280;12231;42.782;23.388;2022-08-20T03:50:28;95100.97;;;22.43;77.16
19590;BME280;12231;42.782;23.388;2022-08-20T03:52:54;95108.19;;;22.41;77.14
19590;BME280;12231;42.782;23.388;2022-08-20T03:55:21;95106.06;;;22.45;76.88
19590;BME280;12231;42.782;23.388;2022-08-20T03:57:49;95113.22;;;22.51;76.70
19590;BME280;12231;42.782;23.388;2022-08-20T04:00:20;95121.25;;;22.57;75.91
19590;BME280;12231;42.782;23.388;2022-08-20T04:02:46;95114.88;;;22.52;76.15
19590;BME280;12231;42.782;23.388;2022-08-20T04:05:12;95118.47;;;22.59;75.80
19590;BME280;12231;42.782;23.388;2022-08-20T04:07:38;95108.38;;;22.40;76.64
19590;BME280;12231;42.782;23.388;2022-08-20T04:10:06;95110.66;;;22.43;76.38
19590;BME280;12231;42.782;23.388;2022-08-20T04:12:34;95114.00;;;22.59;75.91
19590;BME280;12231;42.782;23.388;2022-08-20T04:15:14;95119.69;;;22.71;75.86
19590;BME280;12231;42.782;23.388;2022-08-20T04:17:45;95118.28;;;22.83;75.39
19590;BME280;12231;42.782;23.388;2022-08-20T04:20:13;95111.09;;;22.91;74.82
19590;BME280;12231;42.782;23.388;2022-08-20T04:22:39;95119.59;;;23.16;74.28
19590;BME280;12231;42.782;23.388;2022-08-20T04:25:06;95116.66;;;23.34;73.21
19590;BME280;12231;42.782;23.388;2022-08-20T04:27:38;95110.31;;;23.57;72.51
19590;BME280;12231;42.782;23.388;2022-08-20T04:30:09;95116.38;;;23.87;71.24
19590;BME280;12231;42.782;23.388;2022-08-20T04:32:36;95114.00;;;24.06;70.31
19590;BME280;12231;42.782;23.388;2022-08-20T04:35:09;95111.81;;;24.46;68.83
19590;BME280;12231;42.782;23.388;2022-08-20T04:37:36;95106.53;;;24.67;67.25
19590;BME280;12231;42.782;23.388;2022-08-20T04:40:06;95100.34;;;25.02;66.22
19590;BME280;12231;42.782;23.388;2022-08-20T04:42:51;95101.38;;;25.01;65.78
19590;BME280;12231;42.782;23.388;2022-08-20T04:45:16;95109.34;;;25.35;65.19
19590;BME280;12231;42.782;23.388;2022-08-20T04:47:43;95106.53;;;25.71;63.83
19590;BME280;12231;42.782;23.388;2022-08-20T04:50:09;95109.41;;;26.23;62.34
19590;BME280;12231;42.782;23.388;2022-08-20T04:52:35;95113.97;;;26.55;61.24
19590;BME280;12231;42.782;23.388;2022-08-20T04:55:03;95108.75;;;26.94;59.77
19590;BME280;12231;42.782;23.388;2022-08-20T04:57:28;95109.97;;;27.37;58.37
19590;BME280;12231;42.782;23.388;2022-08-20T04:59:54;95101.53;;;27.79;57.57
19590;BME280;12231;42.782;23.388;2022-08-20T05:02:20;95100.97;;;28.28;55.78
19590;BME280;12231;42.782;23.388;2022-08-20T05:04:46;95101.72;;;28.73;54.61
19590;BME280;12231;42.782;23.388;2022-08-20T05:07:16;95098.91;;;29.23;53.00
19590;BME280;12231;42.782;23.388;2022-08-20T05:09:43;95105.81;;;29.74;51.93
19590;BME280;12231;42.782;23.388;2022-08-20T05:12:08;95099.59;;;30.16;51.14
19590;BME280;12231;42.782;23.388;2022-08-20T05:14:34;95095.75;;;30.89;49.29
19590;BME280;12231;42.782;23.388;2022-08-20T05:17:04;95102.88;;;31.30;48.12
19590;BME280;12231;42.782;23.388;2022-08-20T05:19:30;95114.16;;;31.66;47.43
19590;BME280;12231;42.782;23.388;2022-08-20T05:21:57;95106.47;;;32.04;46.39
19590;BME280;12231;42.782;23.388;2022-08-20T05:24:23;95103.63;;;32.46;45.50
19590;BME280;12231;42.782;23.388;2022-08-20T05:26:49;95097.50;;;32.62;45.11
19590;BME280;12231;42.782;23.388;2022-08-20T05:29:14;95097.97;;;32.59;45.57
19590;BME280;12231;42.782;23.388;2022-08-20T05:31:40;95103.75;;;33.12;44.08
19590;BME280;12231;42.782;23.388;2022-08-20T05:34:10;95098.88;;;33.75;43.25
19590;BME280;12231;42.782;23.388;2022-08-20T05:36:42;95096.22;;;34.13;42.42
19590;BME280;12231;42.782;23.388;2022-08-20T05:39:09;95097.25;;;34.34;42.91
19590;BME280;12231;42.782;23.388;2022-08-20T05:41:35;95105.13;;;34.40;43.21
19590;BME280;12231;42.782;23.388;2022-08-20T05:44:00;95098.44;;;35.18;41.08
19590;BME280;12231;42.782;23.388;2022-08-20T05:46:26;95087.44;;;35.51;40.41
19590;BME280;12231;42.782;23.388;2022-08-20T05:48:52;95083.88;;;35.82;39.90
19590;BME280;12231;42.782;23.388;2022-08-20T05:51:17;95085.94;;;35.65;39.89
19590;BME280;12231;42.782;23.388;2022-08-20T05:53:43;95092.03;;;35.50;40.51
19590;BME280;12231;42.782;23.388;2022-08-20T05:56:08;95101.91;;;35.86;40.03
19590;BME280;12231;42.782;23.388;2022-08-20T05:58:35;95100.44;;;35.69;39.88
19590;BME280;12231;42.782;23.388;2022-08-20T06:01:01;95088.88;;;36.05;38.60
19590;BME280;12231;42.782;23.388;2022-08-20T06:03:27;95081.78;;;36.41;37.83
19590;BME280;12231;42.782;23.388;2022-08-20T06:06:11;95093.94;;;36.02;38.28
19590;BME280;12231;42.782;23.388;2022-08-20T06:08:37;95082.78;;;37.47;35.23
19590;BME280;12231;42.782;23.388;2022-08-20T06:11:03;95083.19;;;38.19;34.24
19590;BME280;12231;42.782;23.388;2022-08-20T06:13:28;95085.16;;;38.67;33.33
19590;BME280;12231;42.782;23.388;2022-08-20T06:15:54;95082.22;;;39.07;32.77
19590;BME280;12231;42.782;23.388;2022-08-20T06:18:20;95086.88;;;35.44;38.34
19590;BME280;12231;42.782;23.388;2022-08-20T06:20:46;95081.09;;;36.85;36.92
19590;BME280;12231;42.782;23.388;2022-08-20T06:23:11;95068.66;;;38.20;33.83
19590;BME280;12231;42.782;23.388;2022-08-20T06:25:37;95078.03;;;38.86;33.22
19590;BME280;12231;42.782;23.388;2022-08-20T06:28:03;95087.22;;;39.86;31.01
19590;BME280;12231;42.782;23.388;2022-08-20T06:30:29;95081.97;;;40.70;29.60
19590;BME280;12231;42.782;23.388;2022-08-20T06:32:54;95084.66;;;41.08;30.80
19590;BME280;12231;42.782;23.388;2022-08-20T06:53:03;95064.50;;;38.91;32.85
19590;BME280;12231;42.782;23.388;2022-08-20T06:55:29;95068.69;;;38.74;33.54
19590;BME280;12231;42.782;23.388;2022-08-20T06:57:59;95066.50;;;35.84;37.33
19590;BME280;12231;42.782;23.388;2022-08-20T07:00:27;95063.84;;;35.53;38.77
19590;BME280;12231;42.782;23.388;2022-08-20T07:02:53;95061.06;;;35.06;39.06
19590;BME280;12231;42.782;23.388;2022-08-20T07:05:19;95061.06;;;34.53;39.95
19590;BME280;12231;42.782;23.388;2022-08-20T07:07:47;95062.94;;;34.52;41.08
19590;BME280;12231;42.782;23.388;2022-08-20T07:10:16;95063.59;;;33.57;42.46
19590;BME280;12231;42.782;23.388;2022-08-20T07:12:43;95055.97;;;33.32;43.13
19590;BME280;12231;42.782;23.388;2022-08-20T07:15:12;95057.81;;;33.31;43.15
19590;BME280;12231;42.782;23.388;2022-08-20T07:17:38;95061.56;;;32.69;44.45
19590;BME280;12231;42.782;23.388;2022-08-20T07:20:10;95057.09;;;33.36;43.10
19590;BME280;12231;42.782;23.388;2022-08-20T07:22:36;95054.72;;;33.73;43.02
19590;BME280;12231;42.782;23.388;2022-08-20T07:25:05;95051.16;;;33.89;42.79
19590;BME280;12231;42.782;23.388;2022-08-20T07:27:31;95051.59;;;33.81;43.33
19590;BME280;12231;42.782;23.388;2022-08-20T07:29:57;95038.78;;;34.47;41.67
19590;BME280;12231;42.782;23.388;2022-08-20T07:32:41;95044.53;;;33.91;41.63
19590;BME280;12231;42.782;23.388;2022-08-20T07:35:10;95045.16;;;33.60;43.35
19590;BME280;12231;42.782;23.388;2022-08-20T07:37:37;95045.72;;;33.41;42.54
19590;BME280;12231;42.782;23.388;2022-08-20T07:40:05;95050.06;;;34.06;42.51
19590;BME280;12231;42.782;23.388;2022-08-20T07:42:31;95037.81;;;34.10;41.83
19590;BME280;12231;42.782;23.388;2022-08-20T07:44:56;95051.63;;;34.24;41.29
19590;BME280;12231;42.782;23.388;2022-08-20T07:47:22;95039.19;;;33.91;42.02
19590;BME280;12231;42.782;23.388;2022-08-20T07:49:47;95041.63;;;33.21;43.18
19590;BME280;12231;42.782;23.388;2022-08-20T07:52:13;95040.47;;;33.51;42.34
19590;BME280;12231;42.782;23.388;2022-08-20T07:54:40;95042.81;;;33.47;43.00
19590;BME280;12231;42.782;23.388;2022-08-20T07:57:06;95040.09;;;33.09;43.69
19590;BME280;12231;42.782;23.388;2022-08-20T07:59:31;95041.22;;;34.06;42.70
19590;BME280;12231;42.782;23.388;2022-08-20T08:01:57;95029.28;;;34.13;42.33
19590;BME280;12231;42.782;23.388;2022-08-20T08:04:23;95037.97;;;33.82;42.26
19590;BME280;12231;42.782;23.388;2022-08-20T08:06:49;95040.81;;;33.54;42.60
19590;BME280;12231;42.782;23.388;2022-08-20T08:09:15;95036.44;;;33.31;43.52
19590;BME280;12231;42.782;23.388;2022-08-20T08:11:45;95042.75;;;33.97;41.25
19590;BME280;12231;42.782;23.388;2022-08-20T08:14:18;95035.03;;;34.27;40.95
19590;BME280;12231;42.782;23.388;2022-08-20T08:16:48;95035.84;;;34.49;40.87
19590;BME280;12231;42.782;23.388;2022-08-20T08:19:16;95033.81;;;33.91;41.62
19590;BME280;12231;42.782;23.388;2022-08-20T08:21:42;95037.31;;;34.13;41.64
19590;BME280;12231;42.782;23.388;2022-08-20T08:24:09;95031.97;;;34.61;40.93
19590;BME280;12231;42.782;23.388;2022-08-20T08:26:35;95035.09;;;34.80;40.15
19590;BME280;12231;42.782;23.388;2022-08-20T08:29:01;95024.31;;;34.75;41.17
19590;BME280;12231;42.782;23.388;2022-08-20T08:31:27;95029.25;;;34.88;39.83
19590;BME280;12231;42.782;23.388;2022-08-20T08:33:53;95028.94;;;35.48;39.52
19590;BME280;12231;42.782;23.388;2022-08-20T08:36:19;95020.63;;;35.96;39.07
19590;BME280;12231;42.782;23.388;2022-08-20T08:38:45;95016.19;;;35.28;40.15
19590;BME280;12231;42.782;23.388;2022-08-20T08:41:44;95026.13;;;35.33;39.26
19590;BME280;12231;42.782;23.388;2022-08-20T08:46:46;95022.25;;;35.14;40.16
19590;BME280;12231;42.782;23.388;2022-08-20T08:49:17;95007.16;;;35.39;39.20
19590;BME280;12231;42.782;23.388;2022-08-20T08:51:49;94998.41;;;35.59;39.32
19590;BME280;12231;42.782;23.388;2022-08-20T08:54:20;94993.13;;;34.91;40.16
19590;BME280;12231;42.782;23.388;2022-08-20T08:56:46;94989.25;;;35.50;39.48
19590;BME280;12231;42.782;23.388;2022-08-20T08:59:12;94985.00;;;36.21;38.14
19590;BME280;12231;42.782;23.388;2022-08-20T09:01:43;94981.53;;;36.25;37.24
19590;BME280;12231;42.782;23.388;2022-08-20T09:04:12;94974.38;;;37.01;37.06
19590;BME280;12231;42.782;23.388;2022-08-20T09:06:37;94979.38;;;36.27;38.81
19590;BME280;12231;42.782;23.388;2022-08-20T09:09:05;94970.25;;;36.23;38.29
19590;BME280;12231;42.782;23.388;2022-08-20T09:11:47;94982.56;;;35.11;39.85
19590;BME280;12231;42.782;23.388;2022-08-20T09:14:13;94966.13;;;35.96;38.10
19590;BME280;12231;42.782;23.388;2022-08-20T09:16:38;94970.88;;;36.75;35.79
19590;BME280;12231;42.782;23.388;2022-08-20T09:19:04;94972.25;;;36.93;36.98
19590;BME280;12231;42.782;23.388;2022-08-20T09:21:29;94979.16;;;36.34;36.91
19590;BME280;12231;42.782;23.388;2022-08-20T09:23:54;94977.34;;;35.36;39.56
19590;BME280;12231;42.782;23.388;2022-08-20T09:26:20;94979.91;;;35.57;39.18
19590;BME280;12231;42.782;23.388;2022-08-20T09:28:45;94973.53;;;36.45;36.25
19590;BME280;12231;42.782;23.388;2022-08-20T09:31:11;94970.09;;;36.95;35.85
19590;BME280;12231;42.782;23.388;2022-08-20T09:33:36;94968.72;;;37.23;35.19
19590;BME280;12231;42.782;23.388;2022-08-20T09:36:02;94974.66;;;36.84;36.09
19590;BME280;12231;42.782;23.388;2022-08-20T09:38:28;94984.19;;;35.53;38.55
19590;BME280;12231;42.782;23.388;2022-08-20T09:40:54;94967.84;;;35.60;38.03
19590;BME280;12231;42.782;23.388;2022-08-20T09:43:19;94959.47;;;36.18;38.01
19590;BME280;12231;42.782;23.388;2022-08-20T09:45:45;94954.16;;;36.43;37.16
19590;BME280;12231;42.782;23.388;2022-08-20T09:48:10;94954.72;;;36.55;36.65
19590;BME280;12231;42.782;23.388;2022-08-20T09:50:45;94949.91;;;36.52;37.55
19590;BME280;12231;42.782;23.388;2022-08-20T09:53:12;94939.06;;;36.27;38.05
19590;BME280;12231;42.782;23.388;2022-08-20T09:55:43;94942.31;;;37.40;35.71
19590;BME280;12231;42.782;23.388;2022-08-20T10:01:16;94944.81;;;36.86;35.21
19590;BME280;12231;42.782;23.388;2022-08-20T10:03:43;94948.84;;;36.83;35.35
19590;BME280;12231;42.782;23.388;2022-08-20T10:06:10;94949.78;;;35.97;37.07
19590;BME280;12231;42.782;23.388;2022-08-20T10:08:38;94944.53;;;36.52;35.71
19590;BME280;12231;42.782;23.388;2022-08-20T10:11:04;94944.78;;;36.56;36.36
19590;BME280;12231;42.782;23.388;2022-08-20T10:13:29;94948.50;;;36.25;35.95
19590;BME280;12231;42.782;23.388;2022-08-20T10:15:55;94942.00;;;36.16;36.06
19590;BME280;12231;42.782;23.388;2022-08-20T10:18:21;94940.09;;;36.01;36.24
19590;BME280;12231;42.782;23.388;2022-08-20T10:20:46;94937.97;;;36.03;35.84
19590;BME280;12231;42.782;23.388;2022-08-20T10:23:11;94929.34;;;35.86;36.48
19590;BME280;12231;42.782;23.388;2022-08-20T10:25:37;94931.25;;;36.01;36.67
19590;BME280;12231;42.782;23.388;2022-08-20T10:28:03;94934.94;;;35.79;37.26
19590;BME280;12231;42.782;23.388;2022-08-20T10:30:29;94928.91;;;35.52;37.74
19590;BME280;12231;42.782;23.388;2022-08-20T10:32:54;94926.84;;;35.74;36.48
19590;BME280;12231;42.782;23.388;2022-08-20T10:35:20;94931.06;;;35.60;36.70
19590;BME280;12231;42.782;23.388;2022-08-20T10:37:45;94927.63;;;35.70;36.98
19590;BME280;12231;42.782;23.388;2022-08-20T10:40:11;94918.19;;;36.34;35.21
19590;BME280;12231;42.782;23.388;2022-08-20T10:42:39;94922.47;;;36.50;34.85
19590;BME280;12231;42.782;23.388;2022-08-20T10:45:05;94923.56;;;36.39;34.21
19590;BME280;12231;42.782;23.388;2022-08-20T10:47:31;94919.25;;;36.43;34.60
19590;BME280;12231;42.782;23.388;2022-08-20T10:49:59;94918.81;;;35.79;35.21
19590;BME280;12231;42.782;23.388;2022-08-20T10:52:26;94918.56;;;35.81;35.00
19590;BME280;12231;42.782;23.388;2022-08-20T10:54:52;94917.84;;;36.16;34.74
19590;BME280;12231;42.782;23.388;2022-08-20T10:57:23;94907.88;;;35.86;34.08
19590;BME280;12231;42.782;23.388;2022-08-20T10:59:51;94904.97;;;36.18;33.87
19590;BME280;12231;42.782;23.388;2022-08-20T11:02:17;94916.25;;;35.43;35.86
19590;BME280;12231;42.782;23.388;2022-08-20T11:04:43;94904.56;;;35.69;33.94
19590;BME280;12231;42.782;23.388;2022-08-20T11:09:46;94915.25;;;34.71;36.41
19590;BME280;12231;42.782;23.388;2022-08-20T11:12:12;94920.00;;;34.63;36.50
19590;BME280;12231;42.782;23.388;2022-08-20T11:14:37;94911.78;;;34.43;37.14
19590;BME280;12231;42.782;23.388;2022-08-20T11:17:04;94913.91;;;34.41;36.44
19590;BME280;12231;42.782;23.388;2022-08-20T11:19:30;94909.31;;;34.69;34.77
19590;BME280;12231;42.782;23.388;2022-08-20T11:21:56;94906.22;;;34.82;35.53
19590;BME280;12231;42.782;23.388;2022-08-20T11:24:21;94904.19;;;34.62;34.48
19590;BME280;12231;42.782;23.388;2022-08-20T11:26:47;94906.34;;;34.65;34.76
19590;BME280;12231;42.782;23.388;2022-08-20T11:29:14;94893.41;;;34.25;36.11
19590;BME280;12231;42.782;23.388;2022-08-20T11:31:40;94883.09;;;34.71;34.70
19590;BME280;12231;42.782;23.388;2022-08-20T11:34:05;94870.03;;;34.84;36.14
19590;BME280;12231;42.782;23.388;2022-08-20T11:36:31;94868.59;;;34.67;35.97
19590;BME280;12231;42.782;23.388;2022-08-20T11:38:57;94867.34;;;35.26;36.33
19590;BME280;12231;42.782;23.388;2022-08-20T11:41:22;94860.50;;;34.98;36.52
19590;BME280;12231;42.782;23.388;2022-08-20T11:43:48;94851.91;;;35.48;35.66
19590;BME280;12231;42.782;23.388;2022-08-20T11:46:13;94843.91;;;35.63;33.96
19590;BME280;12231;42.782;23.388;2022-08-20T11:48:39;94846.34;;;35.79;32.30
19590;BME280;12231;42.782;23.388;2022-08-20T11:51:04;94841.47;;;35.61;34.51
19590;BME280;12231;42.782;23.388;2022-08-20T11:53:30;94835.50;;;35.39;34.91
19590;BME280;12231;42.782;23.388;2022-08-20T11:55:57;94845.19;;;34.94;35.09
19590;BME280;12231;42.782;23.388;2022-08-20T11:58:23;94851.88;;;34.91;36.47
19590;BME280;12231;42.782;23.388;2022-08-20T12:00:48;94850.13;;;34.70;36.00
19590;BME280;12231;42.782;23.388;2022-08-20T12:03:14;94845.25;;;34.30;37.25
19590;BME280;12231;42.782;23.388;2022-08-20T12:05:41;94846.06;;;34.31;38.14
19590;BME280;12231;42.782;23.388;2022-08-20T12:08:07;94854.59;;;33.96;38.47
19590;BME280;12231;42.782;23.388;2022-08-20T12:10:33;94849.25;;;33.70;38.80
19590;BME280;12231;42.782;23.388;2022-08-20T12:12:59;94849.06;;;33.55;38.58
19590;BME280;12231;42.782;23.388;2022-08-20T12:15:25;94846.41;;;33.55;39.31
19590;BME280;12231;42.782;23.388;2022-08-20T12:17:51;94847.91;;;33.72;40.04
19590;BME280;12231;42.782;23.388;2022-08-20T12:20:17;94850.59;;;33.72;40.29
19590;BME280;12231;42.782;23.388;2022-08-20T12:22:43;94850.03;;;33.70;40.00
19590;BME280;12231;42.782;23.388;2022-08-20T12:25:09;94842.09;;;33.80;39.87
19590;BME280;12231;42.782;23.388;2022-08-20T12:27:35;94845.03;;;33.79;39.11
19590;BME280;12231;42.782;23.388;2022-08-20T12:30:09;94854.28;;;33.66;39.80
19590;BME280;12231;42.782;23.388;2022-08-20T12:32:35;94844.16;;;33.68;39.86
19590;BME280;12231;42.782;23.388;2022-08-20T12:35:02;94845.84;;;33.53;40.10
19590;BME280;12231;42.782;23.388;2022-08-20T12:37:29;94845.72;;;33.21;41.86
19590;BME280;12231;42.782;23.388;2022-08-20T12:39:56;94839.63;;;33.25;42.00
19590;BME280;12231;42.782;23.388;2022-08-20T12:42:23;94840.50;;;33.09;42.44
19590;BME280;12231;42.782;23.388;2022-08-20T12:44:48;94836.38;;;33.02;42.20
19590;BME280;12231;42.782;23.388;2022-08-20T12:47:24;94840.44;;;32.88;41.58
19590;BME280;12231;42.782;23.388;2022-08-20T12:49:55;94853.16;;;32.81;42.86
19590;BME280;12231;42.782;23.388;2022-08-20T12:52:23;94872.50;;;32.88;43.86
19590;BME280;12231;42.782;23.388;2022-08-20T12:54:49;94897.41;;;32.10;49.42
19590;BME280;12231;42.782;23.388;2022-08-20T12:57:22;94930.47;;;30.26;59.21
19590;BME280;12231;42.782;23.388;2022-08-20T13:17:34;94840.78;;;25.37;80.28
19590;BME280;12231;42.782;23.388;2022-08-20T13:19:59;94828.75;;;25.34;75.90
19590;BME280;12231;42.782;23.388;2022-08-20T13:22:24;94836.69;;;25.34;77.28
19590;BME280;12231;42.782;23.388;2022-08-20T13:24:50;94843.34;;;25.30;75.26
19590;BME280;12231;42.782;23.388;2022-08-20T13:27:17;94849.88;;;25.34;78.54
19590;BME280;12231;42.782;23.388;2022-08-20T13:29:48;94847.69;;;25.44;77.69
19590;BME280;12231;42.782;23.388;2022-08-20T13:32:14;94861.34;;;25.81;87.29
19590;BME280;12231;42.782;23.388;2022-08-20T13:34:40;94873.13;;;25.91;95.85
19590;BME280;12231;42.782;23.388;2022-08-20T13:37:17;94879.84;;;26.00;98.28
19590;BME280;12231;42.782;23.388;2022-08-20T13:39:43;94892.22;;;26.00;100.00
19590;BME280;12231;42.782;23.388;2022-08-20T13:42:10;94896.94;;;26.04;100.00
19590;BME280;12231;42.782;23.388;2022-08-20T13:44:36;94919.84;;;25.78;100.00